createdAt,value
2022-12-19T00:01:07.475Z,65.64
2022-12-19T00:03:36.439Z,65.29
2022-12-19T00:06:03.514Z,64.63
2022-12-19T00:08:33.057Z,65.52
2022-12-19T00:11:02.322Z,65.69
2022-12-19T00:13:34.441Z,65.76
2022-12-19T00:16:09.215Z,65.57
2022-12-19T00:18:39.823Z,66.02
2022-12-19T00:21:06.659Z,65.54
2022-12-19T00:23:38.185Z,65.79
2022-12-19T00:26:11.955Z,65.89
2022-12-19T00:28:38.803Z,65.83
2022-12-19T00:31:06.325Z,65.87
2022-12-19T00:33:33.037Z,66.21
2022-12-19T00:36:06.561Z,65.72
2022-12-19T00:38:34.139Z,65.76
2022-12-19T00:41:09.562Z,66.28
2022-12-19T00:43:38.223Z,66.92
2022-12-19T00:46:07.574Z,67.18
2022-12-19T00:48:36.561Z,66.54
2022-12-19T00:51:05.744Z,66.89
2022-12-19T00:53:35.038Z,66.66
2022-12-19T00:56:02.991Z,66.68
2022-12-19T00:58:33.216Z,67.19
2022-12-19T01:01:09.161Z,67.41
2022-12-19T01:03:36.298Z,66.99
2022-12-19T01:06:02.976Z,68.62
2022-12-19T01:08:29.926Z,67.57
2022-12-19T01:10:58.413Z,67.74
2022-12-19T01:13:27.363Z,67.49
2022-12-19T01:15:55.629Z,68.01
2022-12-19T01:18:26.643Z,68.12
2022-12-19T01:20:53.714Z,68.21
2022-12-19T01:23:23.203Z,68.50
2022-12-19T01:25:55.770Z,68.13
2022-12-19T01:28:22.972Z,68.46
2022-12-19T01:30:49.492Z,68.87
2022-12-19T01:33:19.010Z,68.85
2022-12-19T01:35:47.896Z,68.68
2022-12-19T01:38:15.673Z,69.20
2022-12-19T01:40:50.079Z,69.55
2022-12-19T01:43:16.650Z,69.57
2022-12-19T01:45:45.935Z,69.28
2022-12-19T01:48:19.235Z,70.17
2022-12-19T01:51:02.052Z,70.45
2022-12-19T01:53:33.446Z,70.44
2022-12-19T01:56:09.476Z,70.26
2022-12-19T01:58:38.222Z,70.23
2022-12-19T02:01:06.566Z,70.48
2022-12-19T02:03:35.652Z,70.97
2022-12-19T02:06:05.467Z,71.30
2022-12-19T02:08:32.907Z,70.96
2022-12-19T02:11:01.754Z,70.25
2022-12-19T02:13:28.525Z,70.48
2022-12-19T02:16:02.660Z,70.99
2022-12-19T02:18:39.986Z,70.39
2022-12-19T02:21:39.469Z,70.66
2022-12-19T02:24:42.465Z,70.15
2022-12-19T02:27:49.198Z,70.55
2022-12-19T02:30:17.804Z,70.13
2022-12-19T02:33:11.267Z,70.07
2022-12-19T02:35:42.754Z,70.63
2022-12-19T02:38:15.962Z,70.54
2022-12-19T02:40:53.768Z,70.01
2022-12-19T02:43:25.391Z,69.92
2022-12-19T02:45:53.573Z,69.43
2022-12-19T02:48:26.638Z,69.55
2022-12-19T02:50:53.487Z,68.86
2022-12-19T02:53:23.650Z,68.79
2022-12-19T02:56:08.093Z,69.41
2022-12-19T02:58:48.210Z,69.30
2022-12-19T03:01:24.740Z,68.85
2022-12-19T03:04:03.568Z,68.90
2022-12-19T03:06:38.649Z,68.51
2022-12-19T03:09:15.909Z,68.43
2022-12-19T03:11:45.019Z,68.51
2022-12-19T03:14:15.805Z,68.04
2022-12-19T03:16:42.496Z,67.54
2022-12-19T03:19:16.687Z,67.21
2022-12-19T03:21:45.717Z,67.35
2022-12-19T03:24:14.764Z,67.76
2022-12-19T03:26:48.626Z,67.74
2022-12-19T03:29:20.547Z,68.11
2022-12-19T03:31:49.653Z,67.79
2022-12-19T03:34:22.380Z,67.78
2022-12-19T03:36:54.966Z,67.16
2022-12-19T03:39:23.335Z,68.02
2022-12-19T03:41:51.728Z,68.30
2022-12-19T03:44:20.769Z,68.13
2022-12-19T03:46:54.437Z,68.89
2022-12-19T03:49:22.356Z,68.54
2022-12-19T03:51:59.404Z,68.33
2022-12-19T03:54:29.438Z,68.79
2022-12-19T03:57:02.195Z,68.46
2022-12-19T03:59:34.180Z,68.32
2022-12-19T04:02:02.253Z,69.12
2022-12-19T04:04:32.513Z,69.72
2022-12-19T04:07:01.278Z,69.78
2022-12-19T04:09:29.091Z,70.78
2022-12-19T04:12:03.558Z,71.62
2022-12-19T04:14:31.822Z,71.86
2022-12-19T04:17:08.467Z,72.14
2022-12-19T04:19:42.761Z,72.75
2022-12-19T04:22:14.717Z,72.83
2022-12-19T04:24:43.711Z,72.59
2022-12-19T04:27:14.263Z,72.82
2022-12-19T04:29:42.238Z,72.90
2022-12-19T04:32:09.745Z,73.20
2022-12-19T04:34:45.249Z,73.32
2022-12-19T04:37:16.638Z,73.61
2022-12-19T04:39:43.161Z,73.51
2022-12-19T04:42:09.893Z,72.96
2022-12-19T04:44:37.768Z,73.20
2022-12-19T04:47:04.443Z,73.24
2022-12-19T04:49:30.909Z,72.84
2022-12-19T04:51:58.734Z,73.84
2022-12-19T04:54:25.484Z,73.26
2022-12-19T04:56:54.013Z,74.09
2022-12-19T04:59:20.804Z,74.06
2022-12-19T05:01:49.854Z,73.00
2022-12-19T05:04:16.497Z,73.03
2022-12-19T05:06:43.521Z,73.15
2022-12-19T05:09:11.899Z,73.32
2022-12-19T05:11:39.365Z,73.47
2022-12-19T05:14:05.898Z,74.18
2022-12-19T05:16:32.438Z,74.57
2022-12-19T05:18:59.128Z,74.45
2022-12-19T05:21:25.712Z,74.40
2022-12-19T05:23:52.410Z,75.15
2022-12-19T05:26:20.564Z,74.88
2022-12-19T05:28:47.108Z,75.66
2022-12-19T05:31:16.676Z,75.50
2022-12-19T05:33:48.988Z,75.01
2022-12-19T05:36:17.916Z,75.39
2022-12-19T05:38:44.491Z,75.33
2022-12-19T05:41:12.683Z,74.83
2022-12-19T05:43:42.373Z,75.44
2022-12-19T05:46:09.064Z,75.71
2022-12-19T05:48:36.663Z,75.85
2022-12-19T05:51:03.718Z,76.32
2022-12-19T05:57:06.300Z,75.92
2022-12-19T05:59:35.425Z,75.82
2022-12-19T06:02:02.090Z,76.31
2022-12-19T06:04:29.657Z,75.44
2022-12-19T06:06:57.294Z,75.25
2022-12-19T06:09:24.371Z,75.17
2022-12-19T06:11:51.526Z,75.43
2022-12-19T06:14:19.683Z,75.00
2022-12-19T06:16:49.467Z,74.66
2022-12-19T06:19:16.171Z,74.41
2022-12-19T06:21:48.112Z,74.89
2022-12-19T06:24:17.230Z,75.20
2022-12-19T06:26:45.001Z,75.44
2022-12-19T06:29:12.083Z,74.99
2022-12-19T06:31:38.986Z,75.05
2022-12-19T06:34:06.939Z,75.44
2022-12-19T06:36:33.491Z,74.65
2022-12-19T06:39:00.096Z,74.31
2022-12-19T06:41:27.914Z,74.29
2022-12-19T06:43:57.763Z,74.20
2022-12-19T06:46:27.850Z,74.50
2022-12-19T06:48:55.570Z,73.93
2022-12-19T06:51:23.659Z,74.65
2022-12-19T06:53:51.687Z,73.53
2022-12-19T06:56:18.991Z,74.29
2022-12-19T06:58:45.858Z,73.86
2022-12-19T07:01:17.757Z,73.98
2022-12-19T07:03:46.260Z,73.49
2022-12-19T07:06:13.302Z,73.72
2022-12-19T07:08:44.928Z,73.40
2022-12-19T07:11:11.486Z,73.78
2022-12-19T07:13:38.015Z,73.40
2022-12-19T07:16:06.084Z,73.25
2022-12-19T07:18:36.790Z,74.27
2022-12-19T07:21:04.861Z,74.10
2022-12-19T07:23:31.614Z,74.57
2022-12-19T07:25:59.587Z,73.76
2022-12-19T07:28:26.197Z,73.40
2022-12-19T07:30:53.082Z,73.62
2022-12-19T07:33:21.698Z,73.80
2022-12-19T07:35:48.780Z,73.53
2022-12-19T07:38:15.977Z,72.49
2022-12-19T07:40:42.541Z,72.47
2022-12-19T07:43:11.017Z,73.14
2022-12-19T07:45:39.036Z,72.50
2022-12-19T07:48:07.264Z,72.25
2022-12-19T07:50:34.018Z,72.70
2022-12-19T07:53:00.582Z,72.72
2022-12-19T07:55:27.143Z,73.08
2022-12-19T07:57:53.849Z,73.41
2022-12-19T08:00:21.973Z,73.37
2022-12-19T08:02:48.641Z,72.19
2022-12-19T08:05:15.867Z,73.16
2022-12-19T08:07:42.505Z,72.91
2022-12-19T08:10:09.886Z,73.08
2022-12-19T08:12:37.965Z,72.41
2022-12-19T08:15:05.583Z,72.67
2022-12-19T08:17:33.632Z,72.27
2022-12-19T08:20:00.205Z,71.88
2022-12-19T08:22:28.727Z,71.92
2022-12-19T08:24:55.541Z,71.62
2022-12-19T08:27:22.114Z,72.15
2022-12-19T08:29:48.755Z,72.05
2022-12-19T08:32:20.794Z,72.52
2022-12-19T08:34:50.176Z,72.41
2022-12-19T08:37:17.066Z,71.68
2022-12-19T08:39:43.868Z,71.35
2022-12-19T08:42:10.525Z,71.23
2022-12-19T08:44:38.237Z,71.44
2022-12-19T08:47:04.902Z,71.12
2022-12-19T08:49:31.522Z,71.34
2022-12-19T08:51:59.453Z,71.30
2022-12-19T08:54:25.934Z,71.49
2022-12-19T08:56:52.526Z,71.51
2022-12-19T08:59:30.810Z,71.62
2022-12-19T09:01:59.471Z,71.40
2022-12-19T09:05:18.739Z,72.16
2022-12-19T09:07:15.778Z,71.63
2022-12-19T09:09:42.689Z,72.08
2022-12-19T09:12:09.296Z,72.07
2022-12-19T09:14:35.871Z,71.09
2022-12-19T09:17:03.809Z,71.31
2022-12-19T09:19:31.810Z,70.64
2022-12-19T09:21:59.757Z,70.58
2022-12-19T09:24:28.065Z,70.26
2022-12-19T09:26:54.630Z,70.82
2022-12-19T09:29:22.057Z,70.63
2022-12-19T09:31:55.329Z,70.52
2022-12-19T09:34:24.874Z,70.23
2022-12-19T09:36:59.767Z,69.72
2022-12-19T09:39:27.823Z,70.04
2022-12-19T09:42:15.154Z,69.31
2022-12-19T09:44:56.589Z,69.81
2022-12-19T09:47:25.519Z,69.57
2022-12-19T09:49:53.066Z,69.21
2022-12-19T09:52:25.705Z,68.69
2022-12-19T09:55:01.731Z,69.07
2022-12-19T09:57:38.217Z,69.01
2022-12-19T10:00:11.623Z,68.66
2022-12-19T10:02:44.087Z,68.68
2022-12-19T10:05:24.170Z,67.77
2022-12-19T10:08:16.054Z,68.63
2022-12-19T10:12:38.706Z,68.46
2022-12-19T10:14:00.945Z,67.69
2022-12-19T10:16:36.653Z,68.64
2022-12-19T10:19:05.797Z,68.22
2022-12-19T10:22:15.646Z,67.79
2022-12-19T10:25:08.077Z,68.99
2022-12-19T10:27:59.578Z,68.93
2022-12-19T10:30:31.973Z,68.41
2022-12-19T10:33:07.296Z,69.32
2022-12-19T10:35:42.617Z,68.31
2022-12-19T10:38:21.188Z,67.53
2022-12-19T10:40:53.540Z,67.78
2022-12-19T10:43:34.812Z,68.01
2022-12-19T10:46:16.776Z,67.50
2022-12-19T10:48:43.632Z,67.66
2022-12-19T10:51:13.420Z,66.85
2022-12-19T10:54:12.696Z,66.47
2022-12-19T10:56:39.276Z,66.67
2022-12-19T11:00:04.433Z,65.96
2022-12-19T11:02:45.754Z,66.36
2022-12-19T11:05:24.351Z,66.45
2022-12-19T11:08:01.914Z,66.00
2022-12-19T11:12:01.205Z,66.11
2022-12-19T11:16:53.656Z,65.94
2022-12-19T11:21:15.986Z,66.06
2022-12-19T11:29:15.977Z,65.32
2022-12-19T11:29:40.718Z,65.64
2022-12-19T11:29:43.951Z,66.48
2022-12-19T11:30:38.375Z,66.01
2022-12-19T11:33:29.379Z,65.43
2022-12-19T11:35:58.433Z,65.20
2022-12-19T11:38:34.694Z,65.30
2022-12-19T11:41:11.019Z,65.16
2022-12-19T11:43:47.389Z,65.32
2022-12-19T11:46:26.181Z,65.23
2022-12-19T11:49:02.269Z,64.55
2022-12-19T11:51:37.748Z,63.92
2022-12-19T11:54:12.966Z,64.54
2022-12-19T11:56:39.986Z,64.52
2022-12-19T11:59:15.328Z,64.26
2022-12-19T12:01:52.575Z,64.07
2022-12-19T12:04:55.321Z,63.55
2022-12-19T12:08:17.704Z,62.67
2022-12-19T12:17:18.659Z,63.23
2022-12-19T12:22:00.724Z,63.04
2022-12-19T12:26:08.432Z,63.12
2022-12-19T12:31:08.553Z,62.29
2022-12-19T12:31:12.119Z,62.47
2022-12-19T12:31:42.405Z,61.48
2022-12-19T12:31:46.812Z,61.07
2022-12-19T12:35:43.567Z,60.65
2022-12-19T12:40:25.244Z,60.37
2022-12-19T12:43:03.707Z,60.06
2022-12-19T12:45:35.822Z,59.90
2022-12-19T12:48:02.650Z,59.58
2022-12-19T12:50:31.151Z,59.15
2022-12-19T12:53:04.903Z,59.24
2022-12-19T12:55:34.302Z,59.40
2022-12-19T12:58:02.504Z,58.89
2022-12-19T13:00:30.223Z,59.39
2022-12-19T13:03:07.857Z,60.18
2022-12-19T13:06:04.710Z,60.01
2022-12-19T13:08:37.357Z,59.80
2022-12-19T13:11:06.069Z,60.36
2022-12-19T13:13:53.701Z,59.24
2022-12-19T13:16:48.832Z,59.58
2022-12-19T13:19:22.575Z,59.07
2022-12-19T13:22:20.690Z,60.14
2022-12-19T13:24:50.941Z,59.92
2022-12-19T13:27:39.438Z,59.94
2022-12-19T13:30:20.251Z,59.48
2022-12-19T13:33:08.738Z,59.61
2022-12-19T13:38:58.051Z,60.04
2022-12-19T13:39:54.779Z,59.67
2022-12-19T13:41:27.150Z,59.99
2022-12-19T13:43:59.867Z,59.81
2022-12-19T13:46:36.519Z,60.47
2022-12-19T13:49:06.839Z,60.18
2022-12-19T13:51:42.264Z,60.61
2022-12-19T13:54:20.526Z,60.44
2022-12-19T13:56:48.731Z,60.26
2022-12-19T13:59:15.521Z,60.01
2022-12-19T14:01:42.444Z,60.86
2022-12-19T14:04:12.486Z,60.55
2022-12-19T14:06:41.170Z,60.65
2022-12-19T14:11:25.919Z,60.80
2022-12-19T14:13:55.024Z,59.93
2022-12-19T14:15:21.435Z,60.32
2022-12-19T14:17:48.823Z,60.37
2022-12-19T14:20:54.334Z,60.87
2022-12-19T14:23:05.949Z,61.11
2022-12-19T14:28:14.331Z,60.80
2022-12-19T14:28:36.035Z,60.38
2022-12-19T14:31:07.914Z,60.36
2022-12-19T14:33:45.139Z,60.89
2022-12-19T14:36:26.228Z,61.05
2022-12-19T14:39:24.940Z,61.12
2022-12-19T14:41:44.960Z,61.27
2022-12-19T14:51:25.266Z,61.03
2022-12-19T14:52:25.408Z,61.38
2022-12-19T14:54:07.207Z,61.99
2022-12-19T14:54:33.979Z,62.01
2022-12-19T14:56:12.965Z,61.72
2022-12-19T14:58:55.485Z,61.72
2022-12-19T15:01:24.531Z,61.84
2022-12-19T15:04:48.235Z,61.73
2022-12-19T15:07:06.672Z,61.88
2022-12-19T15:10:58.960Z,61.98
2022-12-19T15:14:49.150Z,61.82
2022-12-19T15:15:21.502Z,61.49
2022-12-19T15:17:51.292Z,61.96
2022-12-19T15:20:18.255Z,61.80
2022-12-19T15:22:45.178Z,62.09
2022-12-19T15:25:36.071Z,61.88
2022-12-19T15:28:01.038Z,62.06
2022-12-19T15:30:34.038Z,62.77
2022-12-19T15:33:01.903Z,62.49
2022-12-19T15:35:28.510Z,62.14
2022-12-19T15:37:55.272Z,61.55
2022-12-19T15:40:21.870Z,62.60
2022-12-19T15:42:54.904Z,62.39
2022-12-19T15:45:21.551Z,62.35
2022-12-19T15:47:48.813Z,63.12
2022-12-19T15:50:20.561Z,63.00
2022-12-19T15:52:47.321Z,62.16
2022-12-19T15:55:14.937Z,62.38
2022-12-19T15:57:44.372Z,62.20
2022-12-19T16:00:17.642Z,62.99
2022-12-19T16:05:32.733Z,62.52
2022-12-19T16:07:59.412Z,62.58
2022-12-19T16:10:26.631Z,63.30
2022-12-19T16:12:56.679Z,62.89
2022-12-19T16:15:27.152Z,62.44
2022-12-19T16:17:54.018Z,62.83
2022-12-19T16:20:23.658Z,62.57
2022-12-19T16:22:51.806Z,63.19
2022-12-19T16:25:19.218Z,62.83
2022-12-19T16:27:50.256Z,62.70
2022-12-19T16:30:19.994Z,62.49
2022-12-19T16:32:46.857Z,63.03
2022-12-19T16:35:24.031Z,63.51
2022-12-19T16:38:02.387Z,63.25
2022-12-19T16:40:28.986Z,62.92
2022-12-19T16:43:04.898Z,63.60
2022-12-19T16:45:33.558Z,63.33
2022-12-19T16:48:01.604Z,63.20
2022-12-19T16:50:31.616Z,63.39
2022-12-19T16:52:59.937Z,62.77
2022-12-19T16:55:27.806Z,62.81
2022-12-19T16:57:55.881Z,63.46
2022-12-19T17:00:24.298Z,62.95
2022-12-19T17:02:54.184Z,63.39
2022-12-19T17:05:23.677Z,63.06
2022-12-19T17:07:50.742Z,63.66
2022-12-19T17:10:24.245Z,63.15
2022-12-19T17:12:55.009Z,63.38
2022-12-19T17:15:25.675Z,62.68
2022-12-19T17:17:53.279Z,62.47
2022-12-19T17:20:22.880Z,63.41
2022-12-19T17:22:49.405Z,62.61
2022-12-19T17:25:19.640Z,63.25
2022-12-19T17:27:47.171Z,62.97
2022-12-19T17:30:16.999Z,62.56
2022-12-19T17:32:45.543Z,62.44
2022-12-19T17:35:16.949Z,62.06
2022-12-19T17:37:46.653Z,61.79
2022-12-19T17:40:18.732Z,61.85
2022-12-19T17:42:45.802Z,61.57
2022-12-19T17:45:12.379Z,62.45
2022-12-19T17:47:45.573Z,61.78
2022-12-19T17:50:21.413Z,61.54
2022-12-19T17:52:48.011Z,61.48
2022-12-19T17:55:20.563Z,60.80
2022-12-19T17:57:58.144Z,61.20
2022-12-19T18:00:30.706Z,61.56
2022-12-19T18:03:02.309Z,61.33
2022-12-19T18:05:32.148Z,61.42
2022-12-19T18:07:58.854Z,61.90
2022-12-19T18:10:28.147Z,60.82
2022-12-19T18:12:56.603Z,61.29
2022-12-19T18:15:25.241Z,60.79
2022-12-19T18:17:57.227Z,61.32
2022-12-19T18:20:32.333Z,61.53
2022-12-19T18:23:00.266Z,61.43
2022-12-19T18:25:30.927Z,61.32
2022-12-19T18:27:58.343Z,60.73
2022-12-19T18:30:25.746Z,61.01
2022-12-19T18:32:55.995Z,60.58
2022-12-19T18:35:29.427Z,60.73
2022-12-19T18:37:59.366Z,61.50
2022-12-19T18:40:31.318Z,61.42
2022-12-19T18:42:58.234Z,60.77
2022-12-19T18:45:30.711Z,60.81
2022-12-19T18:48:01.166Z,60.57
2022-12-19T18:51:06.740Z,60.68
2022-12-19T18:53:35.770Z,60.96
2022-12-19T18:56:07.116Z,61.62
2022-12-19T19:01:19.686Z,61.47
2022-12-19T19:03:52.740Z,61.32
2022-12-19T19:06:22.789Z,61.13
2022-12-19T19:09:34.040Z,60.36
2022-12-19T19:15:26.363Z,59.99
2022-12-19T19:17:56.848Z,60.40
2022-12-19T19:20:24.293Z,60.87
2022-12-19T19:22:52.910Z,60.87
2022-12-19T19:25:19.510Z,61.36
2022-12-19T19:27:46.310Z,60.70
2022-12-19T19:30:13.143Z,61.32
2022-12-19T19:32:44.307Z,60.45
2022-12-19T19:35:13.917Z,60.13
2022-12-19T19:37:40.728Z,60.07
2022-12-19T19:40:10.310Z,60.82
2022-12-19T19:42:36.942Z,60.96
2022-12-19T19:45:04.636Z,60.50
2022-12-19T19:47:34.579Z,61.56
2022-12-19T19:50:01.118Z,61.47
2022-12-19T19:52:27.897Z,60.92
2022-12-19T19:54:54.381Z,60.78
2022-12-19T19:57:22.277Z,60.81
2022-12-19T19:59:48.876Z,61.21
2022-12-19T20:02:17.547Z,60.77
2022-12-19T20:04:44.271Z,60.75
2022-12-19T20:07:10.825Z,59.84
2022-12-19T20:09:37.328Z,60.51
2022-12-19T20:12:04.282Z,60.55
2022-12-19T20:14:32.111Z,60.50
2022-12-19T20:16:58.605Z,59.99
2022-12-19T20:19:25.232Z,59.76
2022-12-19T20:21:51.889Z,59.74
2022-12-19T20:24:18.964Z,59.70
2022-12-19T20:26:45.445Z,59.96
2022-12-19T20:29:11.971Z,60.02
2022-12-19T20:31:41.363Z,60.16
2022-12-19T20:34:08.569Z,59.79
2022-12-19T20:36:38.877Z,59.47
2022-12-19T20:39:05.911Z,59.64
2022-12-19T20:41:32.839Z,59.48
2022-12-19T20:43:59.633Z,60.46
2022-12-19T20:46:26.204Z,60.87
2022-12-19T20:48:54.287Z,60.91
2022-12-19T20:51:24.135Z,60.39
2022-12-19T20:53:59.643Z,60.56
2022-12-19T20:56:26.173Z,60.65
2022-12-19T20:58:52.816Z,60.47
2022-12-19T21:01:22.176Z,60.09
2022-12-19T21:03:49.392Z,59.77
2022-12-19T21:06:19.296Z,60.02
2022-12-19T21:08:49.936Z,60.59
2022-12-19T21:11:16.810Z,60.16
2022-12-19T21:13:43.682Z,60.16
2022-12-19T21:16:14.040Z,60.96
2022-12-19T21:18:41.864Z,61.20
2022-12-19T21:21:12.257Z,60.13
2022-12-19T21:23:40.248Z,60.82
2022-12-19T21:26:06.804Z,61.09
2022-12-19T21:28:34.439Z,60.82
2022-12-19T21:31:03.364Z,61.16
2022-12-19T21:33:29.978Z,61.27
2022-12-19T21:35:57.201Z,60.91
2022-12-19T21:38:23.798Z,61.40
2022-12-19T21:40:51.647Z,61.12
2022-12-19T21:43:18.495Z,61.66
2022-12-19T21:45:45.000Z,62.60
2022-12-19T21:48:11.515Z,62.23
2022-12-19T21:50:39.968Z,62.91
2022-12-19T21:53:06.484Z,62.58
2022-12-19T21:55:33.002Z,62.76
2022-12-19T21:58:00.933Z,62.22
2022-12-19T22:00:31.620Z,62.42
2022-12-19T22:03:15.257Z,61.98
2022-12-19T22:05:43.142Z,63.02
2022-12-19T22:08:10.820Z,62.14
2022-12-19T22:10:38.234Z,61.83
2022-12-19T22:13:06.077Z,62.06
2022-12-19T22:15:35.892Z,62.35
2022-12-19T22:18:02.397Z,61.71
2022-12-19T22:20:28.868Z,61.94
2022-12-19T22:22:55.479Z,61.96
2022-12-19T22:25:21.949Z,62.19
2022-12-19T22:27:49.912Z,62.36
2022-12-19T22:30:17.817Z,61.60
2022-12-19T22:32:44.568Z,62.67
2022-12-19T22:35:13.081Z,61.80
2022-12-19T22:37:39.832Z,61.81
2022-12-19T22:40:09.862Z,61.96
2022-12-19T22:42:36.390Z,61.85
2022-12-19T22:45:04.002Z,61.52
2022-12-19T22:47:31.866Z,61.39
2022-12-19T22:49:58.423Z,61.91
2022-12-19T22:52:25.959Z,61.40
2022-12-19T22:54:52.409Z,61.61
2022-12-19T22:57:18.895Z,61.28
2022-12-19T22:59:46.003Z,61.83
2022-12-19T23:02:12.629Z,61.79
2022-12-19T23:04:40.706Z,61.77
2022-12-19T23:07:07.555Z,62.02
2022-12-19T23:09:35.158Z,61.90
2022-12-19T23:12:01.669Z,61.61
2022-12-19T23:14:28.511Z,61.40
2022-12-19T23:16:57.844Z,61.85
2022-12-19T23:19:24.364Z,61.86
2022-12-19T23:21:52.185Z,61.87
2022-12-19T23:24:18.654Z,62.00
2022-12-19T23:26:45.415Z,61.75
2022-12-19T23:29:14.254Z,61.72
2022-12-19T23:31:43.524Z,60.69
2022-12-19T23:34:10.290Z,61.26
2022-12-19T23:39:24.869Z,61.35
2022-12-19T23:41:51.797Z,61.19
2022-12-19T23:44:18.931Z,61.28
2022-12-19T23:46:45.458Z,60.81
2022-12-19T23:49:13.044Z,61.26
2022-12-19T23:51:39.528Z,61.47
2022-12-19T23:54:06.285Z,61.51
2022-12-19T23:56:35.317Z,61.62
2022-12-19T23:59:02.234Z,60.89
